Poruka - pregled karte · informacija · telemetrija · vrijeme · osnovni · status · beacons · poruke · bilteni · pretraži · kretanje · Moj račun
Pozivni znak:
Prikazi:

Ucitavanje message paketa...

APRS poruka je spremljena 14 dana. Moguce je pretrazivanje upotrebom zamjenski znakova (*?) iza pocetka oznake.

2018-07-22 18:03:07 EDT: TAESVR>NWS-WARN: 222230z,SVR_STORM,FLC013-039-073-077-129
2018-07-22 18:03:07 EDT: TAESVR>NWS_WARN: 222230z,SVR_STORM,FLC013-039-073-077-129
2018-07-22 18:03:25 EDT: YU1TTN-13>YU1TTN: Weather report @ 00:03, +23.8C, 72.6% rH, 966.3 mBar
2018-07-22 18:03:49 EDT: BEAR>KG7AFQ-10: BAKERSMS - SA
2018-07-22 18:04:06 EDT: TAESVR>NWS-WARN: 222245z,SVR_STORM,FLC065-073-GAC027-131-275
2018-07-22 18:04:06 EDT: TAESVR>NWS_WARN: 222245z,SVR_STORM,FLC065-073-GAC027-131-275
2018-07-22 18:04:06 EDT: PUBSVR>NWS-WARN: 222230z,SVR_STORM,COC025-089-101
2018-07-22 18:04:06 EDT: PUBSVR>NWS_WARN: 222230z,SVR_STORM,COC025-089-101
2018-07-22 18:04:28 EDT: YU1TTN-13>YU1TTN: Weather report @ 00:04, +23.8C, 72.7% rH, 966.3 mBar
2018-07-22 18:04:55 EDT: KJ4ERJ-E2>KJ4ERJ-AP: Bad temperature CRCs after 82 good (120~=188) on pin 6 index 1 from:9(175 1 75 70 127 255 0 16 188)
2018-07-22 18:04:57 EDT: KJ4ERJ-E2>KJ4ERJ-AP: CRC Restored after 2 bad (188==188) on pin 6 index 1 from:9(175 1 75 70 127 255 1 16 188)
2018-07-22 18:05:06 EDT: TAESVR>NWS-WARN: 222245z,SVR_STORM,FLC065-073-GAC027-131-275
2018-07-22 18:05:06 EDT: TAESVR>NWS_WARN: 222245z,SVR_STORM,FLC065-073-GAC027-131-275
2018-07-22 18:05:06 EDT: TAESVR>NWS-WARN: 222215z,SVR_STORM,FLC005-013-037-045-077
2018-07-22 18:05:06 EDT: TAESVR>NWS_WARN: 222215z,SVR_STORM,FLC005-013-037-045-077
2018-07-22 18:05:06 EDT: FFCSVR>NWS-WARN: 222230z,SVR_STORM,GAC091-235
2018-07-22 18:05:06 EDT: FFCSVR>NWS_WARN: 222230z,SVR_STORM,GAC091-235
2018-07-22 18:05:07 EDT: KNFRVR>KC0MKS: WX d360 w g t wc r h
2018-07-22 18:05:20 EDT: KJ4ERJ-E2>KJ4ERJ-AP: Bad temperature CRCs after 12 good (73~=141) on pin 6 index 1 from:9(177 1 75 70 127 255 14 16 141)
2018-07-22 18:05:22 EDT: KJ4ERJ-E2>KJ4ERJ-AP: CRC Restored after 2 bad (140==140) on pin 6 index 1 from:9(178 1 75 70 127 255 14 16 140)
2018-07-22 18:05:31 EDT: YU1TTN-13>YU1TTN: Weather report @ 00:05, +23.9C, 72.3% rH, 966.3 mBar
2018-07-22 18:05:41 EDT: EMAIL-2>KD0WLE-7: me How's it going? :D ^_^ :]
2018-07-22 18:05:56 EDT: NTEFRW>BOM_WARN: 230500z,FROST,VIC_PW004
2018-07-22 18:05:56 EDT: NTEFRW>BOMNTE: Severe Frost Warning for North East forecast district
2018-07-22 18:05:56 EDT: WSGFRW>BOM_WARN: 230500z,FROST,VIC_PW005>006
2018-07-22 18:05:56 EDT: EGLFRW>BOM_WARN: 230500z,FROST,VIC_PW005>006
2018-07-22 18:05:56 EDT: WSGFRW>BOMWSG: Frost Warning for West and South Gippsland and East
2018-07-22 18:05:56 EDT: WSGFRW>BOMWSG: Gippsland forecast districts
2018-07-22 18:05:57 EDT: EGLFRW>BOMEGL: Frost Warning for West and South Gippsland and East
2018-07-22 18:05:57 EDT: EGLFRW>BOMEGL: Gippsland forecast districts
2018-07-22 18:06:06 EDT: LKNFFW>NWS-WARN: 222315z,FLASH_FLOOD,NVC023
2018-07-22 18:06:06 EDT: CHSSVR>NWS-WARN: 222300z,SVR_STORM,GAC031-043-109-267
2018-07-22 18:06:06 EDT: LKNFFW>NWS_WARN: 222315z,FLASH_FLOOD,NVC023
2018-07-22 18:06:06 EDT: CHSSVR>NWS_WARN: 222300z,SVR_STORM,GAC031-043-109-267
2018-07-22 18:06:06 EDT: TAESVR>NWS-WARN: 222230z,SVR_STORM,FLC029-067-123
2018-07-22 18:06:06 EDT: TAESVR>NWS_WARN: 222230z,SVR_STORM,FLC029-067-123
2018-07-22 18:06:06 EDT: TAESVR>NWS-WARN: 222215z,SVR_STORM,FLC039-073-GAC087-131-275
2018-07-22 18:06:06 EDT: TAESVR>NWS_WARN: 222215z,SVR_STORM,FLC039-073-GAC087-131-275
2018-07-22 18:06:08 EDT: KJ4ERJ-E2>KJ4ERJ-AP: Bad temperature CRCs after 30 good (103~=163) on pin 6 index 1 from:9(181 1 75 70 127 255 10 16 163)
2018-07-22 18:06:10 EDT: KJ4ERJ-E2>KJ4ERJ-AP: CRC Restored after 2 bad (163==163) on pin 6 index 1 from:9(181 1 75 70 127 255 11 16 163)
2018-07-22 18:06:13 EDT: KJ4ERJ-E2>KJ4ERJ-AP: Bad temperature CRCs after 1 good (18~=163) on pin 6 index 1 from:9(165 1 75 6 127 255 9 0 163)
2018-07-22 18:06:19 EDT: KJ4ERJ-E2>KJ4ERJ-AP: CRC Restored after 5 bad (163==163) on pin 6 index 1 from:9(181 1 75 70 127 255 11 16 163)
2018-07-22 18:06:33 EDT: YU1TTN-13>YU1TTN: Weather report @ 00:06, +24.1C, 71.7% rH, 966.3 mBar
2018-07-22 18:06:41 EDT: EMAIL-2>KD0WLE-7: me How's it going? :D ^_^ :]
2018-07-22 18:07:18 EDT: KA6ECT>KA6ECT: 1125-Traffic Hazard at SR57 N SR210 E CON / I210 E
2018-07-22 18:07:35 EDT: YU1TTN-13>YU1TTN: Weather report @ 00:07, +24.2C, 71.4% rH, 966.3 mBar
2018-07-22 18:07:41 EDT: EMAIL-2>KD0WLE-7: me How's it going? :D ^_^ :]
2018-07-22 18:08:00 EDT: N6YBH-7>SMSGTE: @5304096817 benchmark on my way out
2018-07-22 18:08:06 EDT: TAESVR>NWS-WARN: 222230z,SVR_STORM,FLC013-039-073-077-129
2018-07-22 18:08:06 EDT: TAESVR>NWS_WARN: 222230z,SVR_STORM,FLC013-039-073-077-129
< prijasnji
FAQ · Blog · Diskusijska grupa · Povezivanje sa aprs.fi · AIS stranice · Status servisa · Statistika base · Savjeti na aprs.fi · Tehnicki detalji · API · Izmjena dnevnika · Planirane promjene · Zasluge i zahvale · Uvjeti servisa · iPhone/iPad APRS